Latest Weather Observations for South Johnstone

IDQ60801

Issued at 10:35 am EST Saturday 26 July 2014 (issued every 30 minutes, with the page automatically refreshed every 10 minutes)

About weather observations | Map of weather stations | Latest weather observations for QLD | Other Formats
Station Details ID: 032037 Name: SOUTH JOHNSTONE EXP STN Lat: -17.61 Lon: 146.00 Height: 18.3 m
Data from the previous 72 hours. | See also: Recent months at South Johnstone
Date/Time
EST
Temp
°C
App
Temp
°C
Dew
Point
Rel
Hum
%
Delta-T
°C
Wind Press
QNH
hPa
Press
MSL
hPa
Rain
since 9 am
mm
Dir
 
Spd
km/h
Gust
km/h
Spd
kts
Gust
kts
26/10:30am 23.0 23.3 18.7 77 2.7 S 15 24 8 13 1023.0 - 0.0
26/10:00am 22.8 23.1 18.8 78 2.5 S 15 24 8 13 1023.5 - 0.0
26/09:30am 22.2 22.6 18.9 81 2.1 S 15 28 8 15 1023.4 - 0.0
26/09:00am 22.0 22.3 18.8 82 2.0 S 15 24 8 13 1023.2 1023.0 7.2
26/08:30am 22.2 22.0 18.5 79 2.3 S 17 28 9 15 1023.0 - 7.2
26/08:00am 21.5 21.9 18.1 81 2.1 SSW 13 20 7 11 1022.6 - 7.2
26/07:30am 18.6 20.6 17.9 96 0.4 NW 4 7 2 4 1022.4 - 7.2
26/07:00am 18.6 20.0 17.4 93 0.7 NNE 6 11 3 6 1022.2 - 7.2
26/06:30am 20.1 20.4 18.0 88 1.3 SSW 13 22 7 12 1021.8 - 7.2
26/06:00am 18.1 20.8 17.8 98 0.2 NNW 0 0 0 0 1021.7 1021.6 7.2
26/05:30am 18.2 20.8 17.5 96 0.4 CALM 0 7 0 4 1021.4 - 7.2
26/05:00am 18.4 20.4 17.9 97 0.3 WSW 4 11 2 6 1021.3 - 7.2
26/04:30am 18.6 21.4 17.9 96 0.4 CALM 0 0 0 0 1021.3 - 7.2
26/04:00am 18.7 21.6 18.2 97 0.3 CALM 0 0 0 0 1021.5 - 7.2
26/03:30am 18.7 19.8 17.9 95 0.5 WSW 9 13 5 7 1021.5 - 7.0
26/03:00am 18.7 20.7 17.9 95 0.5 WSW 4 11 2 6 1021.7 1021.6 6.8
26/02:30am 18.8 20.5 18.0 95 0.5 W 6 9 3 5 1021.6 - 6.8
26/02:00am 18.9 20.3 17.9 94 0.6 WSW 7 9 4 5 1021.8 - 6.8
26/01:30am 19.3 20.9 17.8 91 0.9 SW 6 9 3 5 1022.2 - 6.8
26/01:00am 19.2 19.4 17.7 91 0.9 SSE 13 20 7 11 1022.7 - 6.8
26/12:30am 19.8 19.3 18.7 93 0.7 SE 19 26 10 14 1022.7 - 6.8
26/12:00am 20.2 20.6 19.1 93 0.7 SE 15 26 8 14 1022.7 1022.6 6.8
 
Date/Time
EST
Temp
°C
App
Temp
°C
Dew
Point
Rel
Hum
%
Delta-T
°C
Wind Press
QNH
hPa
Press
MSL
hPa
Rain
since 9 am
mm
Dir
 
Spd
km/h
Gust
km/h
Spd
kts
Gust
kts
25/11:30pm 21.1 22.1 18.7 86 1.5 SSW 11 19 6 10 1022.7 - 5.6
25/11:00pm 20.9 22.0 18.8 88 1.3 SSW 11 17 6 9 1023.0 - 5.6
25/10:30pm 20.3 23.3 19.3 94 0.6 SSW 2 6 1 3 1023.0 - 5.4
25/10:00pm 20.5 22.5 19.2 92 0.8 SE 7 13 4 7 1022.9 - 5.4
25/09:30pm 21.3 22.4 18.9 86 1.5 SSW 11 17 6 9 1022.8 - 0.4
25/09:00pm 21.2 23.0 18.8 86 1.5 S 7 11 4 6 1022.6 1022.5 0.4
25/08:30pm 21.4 22.6 19.0 86 1.5 S 11 19 6 10 1022.4 - 0.4
25/08:00pm 21.7 22.3 18.7 83 1.9 S 13 20 7 11 1022.1 - 0.4
25/07:30pm 21.8 22.3 18.3 80 2.2 S 13 26 7 14 1021.6 - 0.2
25/07:00pm 22.2 22.3 17.5 74 2.9 S 13 20 7 11 1021.2 - 0.2
25/06:30pm 22.2 23.6 17.8 76 2.7 S 7 15 4 8 1020.7 - 0.2
25/06:00pm 22.2 24.2 17.8 76 2.7 SSE 4 7 2 4 1020.5 1020.4 0.2
25/05:30pm 23.0 23.8 17.3 70 3.5 ESE 9 15 5 8 1020.4 - 0.2
25/05:00pm 23.5 23.3 16.6 65 4.2 ESE 13 19 7 10 1019.9 - 0.2
25/04:30pm 23.7 22.8 16.9 65 4.2 ESE 17 24 9 13 1019.6 - 0.2
25/04:00pm 23.9 22.7 16.0 61 4.8 ESE 17 26 9 14 1019.6 - 0.2
25/03:30pm 23.7 22.7 16.5 64 4.4 ESE 17 30 9 16 1019.4 - 0.2
25/03:00pm 23.7 22.2 16.3 63 4.5 ESE 19 30 10 16 1019.3 1019.2 0.2
25/02:30pm 24.1 23.1 17.5 66 4.1 E 19 28 10 15 1019.3 - 0.2
25/02:00pm 23.0 21.3 16.2 65 4.1 ESE 20 32 11 17 1019.5 - 0.2
25/01:30pm 24.2 23.1 17.8 67 4.0 ESE 20 30 11 16 1019.7 - 0.2
25/01:00pm 22.5 22.8 19.5 83 1.9 NE 17 30 9 16 1020.1 - 0.2
25/12:30pm 22.8 22.1 19.5 81 2.1 ESE 22 39 12 21 1020.4 - 0.2
25/12:00pm 25.8 25.2 18.4 63 4.7 ESE 19 28 10 15 1020.5 1020.4 0.2
25/11:30am 25.3 25.0 18.3 65 4.4 E 17 35 9 19 1020.9 - 0.2
25/11:00am 23.7 25.9 20.3 81 2.2 E 9 19 5 10 1021.1 - 0.2
25/10:30am 23.2 25.5 20.6 85 1.7 SSE 9 15 5 8 1021.3 - 0.2
25/10:00am 22.5 25.8 20.0 86 1.6 NNW 2 7 1 4 1021.5 - 0.2
25/09:30am 21.0 23.3 19.9 93 0.7 SSW 7 15 4 8 1021.4 - 0.2
25/09:00am 20.1 23.6 19.6 97 0.3 CALM 0 0 0 0 1021.3 1021.2 7.6
25/08:30am 19.8 23.2 19.3 97 0.3 CALM 0 0 0 0 1021.0 - 5.0
25/08:00am 19.5 22.8 19.2 98 0.2 CALM 0 0 0 0 1020.6 - 5.0
25/07:30am 18.9 22.0 18.6 98 0.2 CALM 0 0 0 0 1020.2 - 5.0
25/07:00am 18.7 21.3 18.4 98 0.2 WNW 2 7 1 4 1019.8 - 4.8
25/06:30am 18.6 21.5 18.1 97 0.3 CALM 0 6 0 3 1019.4 - 4.4
25/06:00am 18.4 20.8 17.9 97 0.3 NNE 2 9 1 5 1019.3 1019.2 4.4
25/05:30am 18.4 21.2 17.9 97 0.3 CALM 0 0 0 0 1018.8 - 1.2
25/05:00am 18.3 20.6 17.6 96 0.4 WSW 2 6 1 3 1018.6 - 0.2
25/04:30am 18.2 20.8 17.5 96 0.4 CALM 0 6 0 3 1018.5 - 0.2
25/04:00am 18.3 19.6 17.5 95 0.5 SW 7 9 4 5 1018.5 - 0.2
25/03:30am 18.2 20.0 17.5 96 0.4 WSW 4 7 2 4 1018.4 - 0.2
25/03:00am 18.4 21.1 17.7 96 0.4 CALM 0 0 0 0 1018.5 1018.4 0.2
25/02:30am 18.3 20.9 17.5 95 0.5 CALM 0 0 0 0 1018.5 - 0.0
25/02:00am 18.4 19.8 17.4 94 0.6 WSW 6 7 3 4 1018.7 - 0.0
25/01:30am 18.5 19.9 17.7 95 0.5 SW 7 9 4 5 1019.0 - 0.0
25/01:00am 18.3 20.5 17.5 95 0.5 W 2 9 1 5 1019.2 - 0.0
25/12:30am 18.5 21.1 17.5 94 0.6 CALM 0 0 0 0 1019.3 - 0.0
25/12:00am 18.8 21.4 17.5 92 0.8 CALM 0 6 0 3 1019.4 1019.3 0.0
 
Date/Time
EST
Temp
°C
App
Temp
°C
Dew
Point
Rel
Hum
%
Delta-T
°C
Wind Press
QNH
hPa
Press
MSL
hPa
Rain
since 9 am
mm
Dir
 
Spd
km/h
Gust
km/h
Spd
kts
Gust
kts
24/11:30pm 18.9 20.9 17.8 93 0.7 W 4 7 2 4 1019.6 - 0.0
24/11:00pm 19.0 21.0 17.9 93 0.7 WSW 4 9 2 5 1019.8 - 0.0
24/10:30pm 19.1 21.9 18.0 93 0.7 CALM 0 4 0 2 1019.9 - 0.0
24/10:00pm 20.0 22.0 17.9 88 1.3 SW 4 7 2 4 1019.8 - 0.0
24/09:30pm 20.1 21.2 18.0 88 1.3 SW 9 11 5 6 1019.8 - 0.0
24/09:00pm 20.3 21.9 18.2 88 1.3 SW 7 11 4 6 1019.6 1019.5 0.0
24/08:30pm 20.9 22.5 18.3 85 1.6 S 7 11 4 6 1019.3 - 0.0
24/08:00pm 21.1 22.2 17.9 82 2.0 SSE 9 13 5 7 1019.1 - 0.0
24/07:30pm 20.7 22.2 18.1 85 1.6 SSE 7 9 4 5 1018.7 - 0.0
24/07:00pm 20.9 21.8 18.3 85 1.6 SE 11 15 6 8 1018.2 - 0.0
24/06:30pm 21.3 22.5 18.2 82 1.9 SE 9 13 5 7 1017.9 - 0.0
24/06:00pm 21.9 22.9 17.7 77 2.6 SSE 9 15 5 8 1017.6 1017.5 0.0
24/05:30pm 22.6 23.5 16.7 69 3.6 S 7 9 4 5 1017.2 - 0.0
24/05:00pm 22.7 23.6 16.6 68 3.7 SSE 7 11 4 6 1017.0 - 0.0
24/04:30pm 23.2 24.0 16.3 65 4.2 ESE 7 11 4 6 1016.8 - 0.0
24/04:00pm 23.5 23.6 15.5 60 4.8 SE 9 13 5 7 1016.7 - 0.0
24/03:30pm 23.5 23.4 14.9 58 5.1 SE 9 13 5 7 1016.6 - 0.0
24/03:00pm 23.0 21.8 15.1 61 4.7 SE 15 24 8 13 1016.5 1016.4 0.0
24/02:30pm 24.6 24.7 16.6 61 4.9 E 11 15 6 8 1016.6 - 0.0
24/02:00pm 24.2 23.5 15.4 58 5.3 E 13 17 7 9 1016.9 - 0.0
24/01:30pm 24.1 23.6 15.8 59 5.0 ESE 13 19 7 10 1017.2 - 0.0
24/01:00pm 24.7 24.4 16.4 60 5.1 E 13 26 7 14 1017.5 - 0.0
24/12:30pm 24.6 24.2 16.2 59 5.1 ENE 13 19 7 10 1017.7 - 0.0
24/12:00pm 24.4 24.7 16.9 63 4.6 ESE 11 20 6 11 1018.1 1018.0 0.0
24/11:30am 24.2 24.4 16.7 63 4.6 E 11 19 6 10 1018.4 - 0.0
24/11:00am 24.0 24.6 16.7 63 4.5 ESE 9 19 5 10 1018.7 - 0.0
24/10:30am 23.1 25.2 17.3 70 3.6 ENE 2 7 1 4 1018.9 - 0.0
24/10:00am 21.0 23.5 17.2 79 2.3 CALM 0 0 0 0 1019.1 - 0.0
24/09:30am 20.6 23.0 17.0 80 2.2 CALM 0 0 0 0 1018.9 - 0.0
24/09:00am 18.1 19.8 16.1 88 1.2 WNW 2 6 1 3 1018.8 1018.7 0.2
24/08:30am 16.4 17.0 15.2 93 0.7 WNW 6 9 3 5 1018.3 - 0.2
24/08:00am 14.6 15.8 13.9 96 0.4 CALM 0 6 0 3 1018.0 - 0.2
24/07:30am 13.5 13.2 12.8 95 0.4 W 6 9 3 5 1017.7 - 0.2
24/07:00am 13.1 13.5 12.5 96 0.3 NNW 2 7 1 4 1017.4 - 0.2
24/06:30am 13.2 13.3 12.6 96 0.3 W 4 9 2 5 1017.2 - 0.2
24/06:00am 13.1 13.1 12.5 96 0.3 W 4 7 2 4 1017.1 1017.0 0.2
24/05:30am 13.4 13.5 12.8 96 0.3 WNW 4 9 2 5 1017.0 - 0.2
24/05:00am 13.7 13.6 13.2 97 0.3 WNW 6 9 3 5 1016.8 - 0.0
24/04:30am 13.9 13.8 13.4 97 0.3 WNW 6 7 3 4 1016.8 - 0.0
24/04:00am 14.2 14.3 13.8 97 0.2 W 6 9 3 5 1016.9 - 0.0
24/03:30am 14.0 14.0 13.6 97 0.2 WSW 6 9 3 5 1017.0 - 0.0
24/03:00am 13.7 13.4 13.3 97 0.2 W 7 13 4 7 1017.0 1016.9 0.0
24/02:30am 13.7 14.0 13.3 97 0.2 WNW 4 9 2 5 1017.1 - 0.0
24/02:00am 14.6 14.6 14.1 97 0.3 W 7 15 4 8 1017.4 - 0.0
24/01:30am 14.8 14.5 14.3 97 0.3 WSW 9 13 5 7 1017.6 - 0.0
24/01:00am 14.8 15.0 14.3 97 0.3 W 6 9 3 5 1018.1 - 0.0
24/12:30am 15.2 15.6 14.7 97 0.3 WNW 6 9 3 5 1018.4 - 0.0
24/12:00am 15.4 15.8 14.7 96 0.4 W 6 11 3 6 1018.6 1018.5 0.0
 
Date/Time
EST
Temp
°C
App
Temp
°C
Dew
Point
Rel
Hum
%
Delta-T
°C
Wind Press
QNH
hPa
Press
MSL
hPa
Rain
since 9 am
mm
Dir
 
Spd
km/h
Gust
km/h
Spd
kts
Gust
kts
23/11:30pm 15.4 15.8 14.7 96 0.4 W 6 11 3 6 1018.6 - 0.0
23/11:00pm 15.6 16.1 14.9 96 0.4 W 6 9 3 5 1018.6 - 0.0
23/10:30pm 15.8 17.5 15.1 96 0.4 CALM 0 0 0 0 1018.7 - 0.0
23/10:00pm 16.1 17.8 15.2 94 0.5 CALM 0 2 0 1 1018.7 - 0.0
23/09:30pm 16.5 18.3 15.5 94 0.6 CALM 0 6 0 3 1018.8 - 0.0
23/09:00pm 16.8 18.7 15.8 94 0.6 CALM 0 6 0 3 1018.6 1018.5 0.0
23/08:30pm 17.5 17.8 16.0 91 0.9 WSW 9 13 5 7 1018.4 - 0.0
23/08:00pm 18.3 18.6 16.1 87 1.3 WSW 9 11 5 6 1018.2 - 0.0
23/07:30pm 19.7 20.0 16.0 79 2.2 SSW 9 13 5 7 1017.9 - 0.0
23/07:00pm 20.2 20.6 16.4 79 2.3 SSW 9 15 5 8 1017.6 - 0.0
23/06:30pm 20.5 20.9 16.2 76 2.6 SSW 9 15 5 8 1017.4 - 0.0
23/06:00pm 20.4 20.9 15.1 71 3.1 S 6 9 3 5 1017.1 1017.0 0.0
23/05:30pm 21.3 20.2 14.3 64 4.1 SE 13 19 7 10 1016.7 - 0.0
23/05:00pm 22.2 20.6 14.0 59 4.8 SE 15 22 8 12 1016.3 - 0.0
23/04:30pm 22.6 20.3 14.0 58 5.0 SE 19 26 10 14 1016.0 - 0.0
23/04:00pm 23.2 20.9 14.0 56 5.4 ESE 19 26 10 14 1016.1 - 0.0
23/03:30pm 23.5 21.5 13.9 55 5.6 ESE 17 26 9 14 1015.9 - 0.0
23/03:00pm 24.0 22.5 14.1 54 5.8 SE 15 24 8 13 1015.9 1015.8 0.0
23/02:30pm 23.5 21.9 13.9 55 5.6 SE 15 24 8 13 1015.8 - 0.0
23/02:00pm 24.3 22.4 14.1 53 6.0 ESE 17 28 9 15 1015.9 - 0.0
23/01:30pm 24.2 22.0 13.2 50 6.4 ESE 17 26 9 14 1016.2 - 0.0
23/01:00pm 24.3 23.2 14.3 53 5.9 SE 13 22 7 12 1016.5 - 0.0
23/12:30pm 24.0 23.0 14.7 56 5.5 SE 13 20 7 11 1016.8 - 0.0
23/12:00pm 23.3 22.7 14.7 58 5.1 SSE 11 17 6 9 1017.3 1017.2 0.0
23/11:30am 22.9 23.0 15.6 63 4.4 S 9 17 5 9 1017.8 - 0.0
23/11:00am 23.4 23.1 15.4 60 4.8 S 11 20 6 11 1018.1 - 0.0

Other Formats:

Comma delimited format used in spreadsheet applications
http://www.bom.gov.au/fwo/IDQ60801/IDQ60801.95292.axf

JavaScript Object Notation format (JSON) in row-major order
http://www.bom.gov.au/fwo/IDQ60801/IDQ60801.95292.json